Time;durP1;ratioP1;P1;durP2;ratioP2;P2;SDS_P1;SDS_P2;PMS_P1;PMS_P2;Temp;Humidity;BMP_temperature;BMP_pressure;BME280_temperature;BME280_humidity;BME280_pressure;Samples;Min_cycle;Max_cycle;Signal;HPM_P1;HPM_P2
2021/12/04 00:00:05;;;;;;;1.97;1.80;;;;;;;9.70;67.10;94111.13;5091090;28;20641;-73
2021/12/04 00:02:32;;;;;;;2.23;2.10;;;;;;;9.68;66.93;94107.94;5091502;28;20193;-74
2021/12/04 00:05:01;;;;;;;2.10;2.00;;;;;;;9.66;66.88;94115.72;5090791;28;20186;-72
2021/12/04 00:07:32;;;;;;;2.10;2.00;;;;;;;9.66;66.97;94104.72;5090733;28;20268;-72
2021/12/04 00:10:01;;;;;;;1.80;1.70;;;;;;;9.66;67.03;94105.50;5091041;28;20656;-72
2021/12/04 00:12:30;;;;;;;1.90;1.80;;;;;;;9.64;66.78;94096.41;5091047;28;20209;-74
2021/12/04 00:14:57;;;;;;;1.90;1.80;;;;;;;9.63;66.73;94097.34;5091183;28;20551;-74
2021/12/04 00:17:24;;;;;;;1.90;1.80;;;;;;;9.62;66.84;94090.63;5090722;28;20661;-73
2021/12/04 00:19:51;;;;;;;2.03;1.80;;;;;;;9.61;66.55;94099.25;5089586;28;20580;-74
2021/12/04 00:22:18;;;;;;;2.00;1.90;;;;;;;9.60;66.60;94106.13;5091043;28;20201;-73
2021/12/04 00:24:46;;;;;;;1.73;1.63;;;;;;;9.60;66.62;94107.88;5090462;28;20642;-73
2021/12/04 00:27:13;;;;;;;2.13;1.77;;;;;;;9.54;66.55;94092.19;5091364;28;20212;-72
2021/12/04 00:29:40;;;;;;;2.10;2.00;;;;;;;9.56;66.68;94099.69;5090490;28;20186;-72
2021/12/04 00:32:11;;;;;;;2.60;2.00;;;;;;;9.54;66.70;94094.75;5091049;28;20565;-74
2021/12/04 00:34:41;;;;;;;2.17;2.07;;;;;;;9.52;66.79;94096.63;5090057;28;20193;-71
2021/12/04 00:50:47;;;;;;;2.13;2.03;;;;;;;9.51;66.87;94104.44;5090688;28;20235;-73
2021/12/04 00:53:13;;;;;;;2.37;2.20;;;;;;;9.50;66.62;94095.97;5090294;28;20624;-75
2021/12/04 00:55:42;;;;;;;2.40;2.03;;;;;;;9.50;66.63;94095.97;5090342;28;20656;-75
2021/12/04 00:58:08;;;;;;;2.10;2.00;;;;;;;9.50;66.35;94100.28;5090293;28;20219;-73
2021/12/04 01:00:35;;;;;;;2.20;2.10;;;;;;;9.48;66.33;94097.84;5090442;28;20193;-74
2021/12/04 01:03:02;;;;;;;1.97;1.87;;;;;;;9.45;66.17;94087.94;5089863;28;20247;-74
2021/12/04 01:05:29;;;;;;;2.53;2.33;;;;;;;9.46;66.29;94094.66;5090170;28;20225;-72
2021/12/04 01:07:56;;;;;;;2.50;2.27;;;;;;;9.43;66.33;94082.19;5089342;28;20189;-74
2021/12/04 01:10:22;;;;;;;2.30;2.10;;;;;;;9.44;66.49;94075.34;5089198;28;20182;-75
2021/12/04 01:12:50;;;;;;;2.63;2.43;;;;;;;9.43;66.58;94066.06;5090436;28;20190;-75
2021/12/04 01:15:17;;;;;;;2.70;2.50;;;;;;;9.44;66.48;94060.03;5090370;28;20185;-75
2021/12/04 01:17:44;;;;;;;2.80;2.60;;;;;;;9.43;66.48;94058.41;5090040;28;20193;-76
2021/12/04 01:20:11;;;;;;;2.67;2.47;;;;;;;9.37;66.41;94051.34;5089500;28;20208;-73
2021/12/04 01:22:39;;;;;;;3.50;2.87;;;;;;;9.40;66.46;94051.84;5089665;28;20189;-73
2021/12/04 01:25:07;;;;;;;2.45;2.25;;;;;;;9.38;66.28;94048.66;5089902;28;20573;-73
2021/12/04 01:27:35;;;;;;;2.70;2.50;;;;;;;9.38;66.34;94055.50;5089961;28;20226;-73
2021/12/04 01:30:05;;;;;;;2.90;2.60;;;;;;;9.36;66.24;94052.28;5089995;28;20182;-74
2021/12/04 01:32:32;;;;;;;2.57;2.37;;;;;;;9.35;66.12;94043.84;5090297;28;20193;-75
2021/12/04 01:34:59;;;;;;;3.07;2.83;;;;;;;9.32;66.04;94040.78;5088784;28;20200;-74
2021/12/04 01:37:26;;;;;;;3.67;3.33;;;;;;;9.31;66.27;94045.06;5089995;28;20186;-75
2021/12/04 01:39:53;;;;;;;3.00;2.70;;;;;;;9.29;66.02;94036.78;5089897;28;20675;-74
2021/12/04 01:42:21;;;;;;;2.80;2.60;;;;;;;9.29;66.21;94049.53;5090327;28;20205;-72
2021/12/04 01:44:48;;;;;;;3.00;2.70;;;;;;;9.29;66.14;94059.75;5089703;28;20201;-74
2021/12/04 01:47:19;;;;;;;3.43;3.13;;;;;;;9.29;66.02;94057.19;5089685;28;20225;-74
2021/12/04 01:49:48;;;;;;;3.47;3.17;;;;;;;9.28;65.98;94053.84;5089871;28;20272;-75
2021/12/04 01:52:17;;;;;;;3.23;2.97;;;;;;;9.25;65.92;94043.91;5089807;28;20180;-73
2021/12/04 01:54:43;;;;;;;2.90;2.63;;;;;;;9.28;65.87;94058.09;5090068;28;20185;-73
2021/12/04 01:57:12;;;;;;;3.70;3.10;;;;;;;9.26;65.90;94052.38;5089557;28;20189;-73
2021/12/04 01:59:39;;;;;;;4.37;3.17;;;;;;;9.24;65.72;94054.25;5089305;28;20194;-72
2021/12/04 02:02:06;;;;;;;4.30;3.17;;;;;;;9.22;65.95;94048.50;5087878;28;20185;-73
2021/12/04 02:04:34;;;;;;;3.43;3.13;;;;;;;9.22;65.92;94053.59;5089646;28;20189;-72
2021/12/04 02:07:03;;;;;;;3.77;3.23;;;;;;;9.20;65.92;94051.22;5089106;28;20225;-72
2021/12/04 02:09:30;;;;;;;4.50;3.23;;;;;;;9.19;65.92;94062.34;5089905;28;20190;-73
2021/12/04 02:11:57;;;;;;;3.30;3.00;;;;;;;9.17;65.87;94059.16;5089457;28;20197;-73
2021/12/04 02:14:24;;;;;;;3.80;3.40;;;;;;;9.17;65.91;94061.69;5089523;28;20198;-75
2021/12/04 02:16:51;;;;;;;5.97;4.20;;;;;;;9.08;65.99;94051.56;5089419;28;20194;-73
2021/12/04 02:19:18;;;;;;;4.70;4.07;;;;;;;9.15;65.94;94050.03;5089267;28;20730;-73
2021/12/04 02:21:46;;;;;;;5.70;4.27;;;;;;;9.12;65.46;94043.47;5089435;28;20597;-72
2021/12/04 02:24:13;;;;;;;4.13;3.73;;;;;;;9.15;65.96;94037.25;5089475;28;20225;-74
2021/12/04 02:26:40;;;;;;;4.27;3.77;;;;;;;9.15;65.92;94043.16;5088529;28;20723;-73
2021/12/04 02:29:07;;;;;;;3.83;3.43;;;;;;;9.16;65.82;94046.53;5089425;28;20190;-74
2021/12/04 02:31:34;;;;;;;3.83;3.37;;;;;;;9.15;65.84;94043.16;5091416;28;20692;-73
2021/12/04 02:34:00;;;;;;;4.87;3.77;;;;;;;9.16;66.03;94047.34;5092655;28;20178;-74
2021/12/04 02:36:28;;;;;;;5.30;4.40;;;;;;;9.14;66.03;94036.47;5092931;28;20572;-72
2021/12/04 02:38:56;;;;;;;4.77;4.00;;;;;;;9.16;65.96;94037.13;5092552;28;20272;-72
2021/12/04 02:41:23;;;;;;;4.70;4.23;;;;;;;9.16;66.08;94039.69;5093232;28;20220;-75
2021/12/04 02:43:51;;;;;;;5.73;4.57;;;;;;;9.15;66.10;94035.50;5092706;28;20182;-73
2021/12/04 02:46:18;;;;;;;4.53;3.83;;;;;;;9.17;66.20;94038.72;5093104;28;20213;-74
2021/12/04 02:48:47;;;;;;;4.60;3.83;;;;;;;9.15;66.32;94045.72;5092586;28;20197;-73
2021/12/04 02:51:15;;;;;;;4.30;3.77;;;;;;;9.16;66.18;94046.53;5092491;28;20667;-74
2021/12/04 02:53:42;;;;;;;3.70;3.40;;;;;;;8.97;66.19;94006.66;5090946;28;20200;-73
2021/12/04 02:56:11;;;;;;;4.27;3.87;;;;;;;9.16;66.26;94038.88;5092603;28;20197;-74
2021/12/04 02:58:44;;;;;;;4.03;3.50;;;;;;;9.15;66.31;94029.59;5092464;28;20288;-73
2021/12/04 03:01:11;;;;;;;5.03;3.37;;;;;;;9.17;66.39;94020.09;5092734;28;20188;-76
2021/12/04 03:03:37;;;;;;;4.23;3.23;;;;;;;9.18;66.39;94026.78;5092502;28;20668;-74
2021/12/04 03:06:04;;;;;;;3.60;3.30;;;;;;;9.19;66.48;94023.28;5092541;28;20223;-75
2021/12/04 03:08:31;;;;;;;3.70;3.40;;;;;;;9.17;66.79;94022.63;5092288;28;20200;-74
2021/12/04 03:10:58;;;;;;;3.83;3.53;;;;;;;9.19;66.58;94025.81;5092701;28;20185;-73
2021/12/04 03:13:26;;;;;;;3.70;3.20;;;;;;;9.19;66.67;94031.72;5092702;28;20181;-73
2021/12/04 03:15:59;;;;;;;4.10;3.70;;;;;;;9.20;66.68;94035.09;5092132;28;20194;-73
2021/12/04 03:18:27;;;;;;;3.70;3.40;;;;;;;9.19;66.89;94036.81;5090320;28;20243;-75
2021/12/04 03:20:55;;;;;;;3.47;3.17;;;;;;;9.11;67.09;94023.19;5092078;28;20699;-73
2021/12/04 03:23:28;;;;;;;3.70;3.40;;;;;;;9.19;67.25;94034.28;5091966;28;20283;-74
2021/12/04 03:25:57;;;;;;;4.10;3.50;;;;;;;9.18;67.18;94032.69;5095636;28;20178;-74
2021/12/04 03:28:26;;;;;;;3.73;3.40;;;;;;;9.19;67.15;94036.03;5104398;28;20186;-77
2021/12/04 03:30:58;;;;;;;5.40;3.77;;;;;;;9.15;67.03;94025.31;5097545;28;20190;-74
2021/12/04 03:41:33;;;;;;;3.97;3.67;;;;;;;9.16;67.30;94049.91;5049525;28;20189;-72
2021/12/04 03:44:01;;;;;;;4.17;3.40;;;;;;;9.14;67.29;94041.56;5048025;28;21073;-75
2021/12/04 03:46:28;;;;;;;4.10;3.70;;;;;;;9.13;67.60;94047.63;5049206;28;20645;-73
2021/12/04 03:48:55;;;;;;;3.77;3.47;;;;;;;9.13;67.48;94052.72;5048883;28;20198;-76
2021/12/04 03:51:23;;;;;;;3.80;3.50;;;;;;;9.12;67.25;94052.88;5048924;28;20219;-73
2021/12/04 03:53:50;;;;;;;3.93;3.60;;;;;;;9.10;67.46;94050.44;5048418;28;20202;-73
2021/12/04 03:56:22;;;;;;;3.97;3.67;;;;;;;9.09;67.41;94053.16;5049074;28;20202;-73
2021/12/04 03:58:49;;;;;;;3.77;3.47;;;;;;;9.08;67.41;94062.56;5048690;28;20238;-74
2021/12/04 04:01:17;;;;;;;4.60;3.90;;;;;;;9.05;67.54;94055.19;5049027;28;20187;-73
2021/12/04 04:03:44;;;;;;;4.10;3.80;;;;;;;9.05;67.15;94061.09;5048500;28;20187;-73
2021/12/04 04:06:12;;;;;;;3.90;3.60;;;;;;;9.03;66.98;94068.09;5048388;28;20195;-73
2021/12/04 04:08:38;;;;;;;4.20;3.87;;;;;;;8.94;67.14;94052.88;5048082;28;20186;-73
2021/12/04 04:11:05;;;;;;;4.30;3.90;;;;;;;9.00;67.11;94065.81;5047146;28;20194;-72
2021/12/04 04:13:32;;;;;;;4.60;4.20;;;;;;;8.97;67.28;94058.44;5072262;28;20201;-74
2021/12/04 04:16:00;;;;;;;4.50;4.10;;;;;;;8.96;67.50;94061.94;5091006;28;20194;-73
2021/12/04 04:18:31;;;;;;;4.67;4.20;;;;;;;8.96;67.24;94066.25;5091236;28;20255;-74
2021/12/04 04:20:58;;;;;;;4.93;4.43;;;;;;;8.93;67.29;94062.22;5090458;28;20186;-73
2021/12/04 04:23:25;;;;;;;5.63;4.17;;;;;;;8.92;67.32;94064.94;5090857;28;20229;-73
2021/12/04 04:25:51;;;;;;;4.77;4.27;;;;;;;8.91;67.26;94061.59;5090906;28;20562;-73
2021/12/04 04:28:19;;;;;;;5.17;4.27;;;;;;;8.80;67.25;94042.19;5091210;28;20217;-73
2021/12/04 04:30:45;;;;;;;5.40;4.90;;;;;;;8.89;67.20;94067.75;5090851;28;20575;-73
2021/12/04 04:33:14;;;;;;;6.77;6.17;;;;;;;8.88;67.39;94077.16;5090626;28;20193;-73
2021/12/04 04:35:44;;;;;;;5.60;5.10;;;;;;;8.85;67.18;94072.38;5088616;28;20189;-72
2021/12/04 04:38:30;;;;;;;4.83;4.43;;;;;;;8.81;67.17;94068.50;5090897;28;20668;-74
2021/12/04 04:57:42;;;;;;;8.83;4.83;;;;;;;8.79;66.81;94089.00;5047851;28;20652;-76
2021/12/04 05:11:16;;;;;;;4.63;4.13;;;;;;;8.79;66.33;94098.41;5047400;28;20194;-73
2021/12/04 05:13:43;;;;;;;5.30;4.57;;;;;;;8.79;66.23;94095.88;5047750;28;20187;-75
2021/12/04 05:16:14;;;;;;;5.30;4.80;;;;;;;8.61;66.17;94067.78;5047298;28;20277;-75
2021/12/04 05:18:45;;;;;;;4.57;4.17;;;;;;;8.79;66.28;94089.00;5047880;28;20672;-73
2021/12/04 05:21:13;;;;;;;4.43;4.03;;;;;;;8.80;66.39;94087.25;5047271;28;20199;-74
2021/12/04 05:23:44;;;;;;;5.00;4.50;;;;;;;8.81;66.36;94078.69;5047170;28;20239;-73
2021/12/04 05:26:14;;;;;;;4.40;4.00;;;;;;;8.76;66.41;94083.38;5047238;28;20203;-75
2021/12/04 05:28:41;;;;;;;4.73;4.23;;;;;;;8.80;66.25;94085.50;5047863;28;20302;-76
2021/12/04 05:31:08;;;;;;;4.70;4.30;;;;;;;8.79;66.42;94091.56;5047279;28;20191;-74
2021/12/04 05:33:35;;;;;;;5.07;4.60;;;;;;;8.84;66.28;94091.13;5050429;28;20196;-75
2021/12/04 05:36:02;;;;;;;5.37;4.70;;;;;;;8.85;66.33;94085.13;5090122;28;20190;-74
2021/12/04 05:38:29;;;;;;;5.93;4.20;;;;;;;8.80;66.19;94079.63;5089697;28;20607;-75
2021/12/04 05:40:57;;;;;;;4.67;4.23;;;;;;;8.83;66.11;94083.63;5089603;28;20190;-73
2021/12/04 05:43:25;;;;;;;5.37;4.87;;;;;;;8.82;66.18;94089.69;5089938;28;20181;-72
2021/12/04 05:45:57;;;;;;;4.50;4.10;;;;;;;8.83;66.40;94086.19;5089727;28;20242;-74
2021/12/04 05:48:35;;;;;;;4.63;4.23;;;;;;;8.84;66.29;94090.34;5090064;28;20215;-73
2021/12/04 05:53:55;;;;;;;4.63;4.00;;;;;;;8.85;66.33;94085.13;5087768;28;20189;-74
2021/12/04 05:56:24;;;;;;;6.83;5.17;;;;;;;8.86;66.11;94091.00;5089517;28;20250;-73
2021/12/04 05:58:52;;;;;;;5.33;4.83;;;;;;;8.87;65.98;94092.63;5089648;28;20196;-73
2021/12/04 06:01:21;;;;;;;5.37;4.87;;;;;;;8.86;66.03;94096.91;5089482;28;20246;-73
2021/12/04 06:03:48;;;;;;;4.97;4.47;;;;;;;8.85;66.07;94095.31;5089816;28;20186;-73
2021/12/04 06:06:15;;;;;;;5.00;4.50;;;;;;;8.88;65.95;94096.75;5091307;28;20185;-75
2021/12/04 06:08:43;;;;;;;5.53;4.67;;;;;;;8.86;66.17;94098.66;5093615;28;20699;-74
2021/12/04 06:11:09;;;;;;;5.90;4.97;;;;;;;8.89;66.17;94101.72;5093206;28;20439;-73
2021/12/04 06:13:40;;;;;;;5.30;4.80;;;;;;;8.85;66.05;94097.03;5093802;28;20189;-75
2021/12/04 06:16:07;;;;;;;6.30;5.63;;;;;;;8.88;66.22;94106.97;5093405;28;20216;-79
2021/12/04 06:18:34;;;;;;;6.73;5.43;;;;;;;8.88;66.42;94101.84;5093226;28;20185;-79
2021/12/04 06:23:45;;;;;;;5.40;4.80;;;;;;;8.88;66.60;94099.31;5093385;28;20810;-76
2021/12/04 06:26:12;;;;;;;6.60;5.40;;;;;;;8.67;66.52;94074.03;5093396;28;20252;-74
2021/12/04 06:28:40;;;;;;;6.30;5.40;;;;;;;8.89;66.70;94111.91;5093551;28;20221;-75
2021/12/04 06:31:09;;;;;;;6.30;5.50;;;;;;;8.91;66.57;94114.34;5092868;28;20189;-75
2021/12/04 06:33:36;;;;;;;5.77;5.17;;;;;;;8.92;66.40;94111.63;5093406;28;20185;-75
2021/12/04 06:36:04;;;;;;;6.83;5.50;;;;;;;8.87;66.19;94106.16;5093128;28;20182;-75
2021/12/04 06:38:31;;;;;;;6.70;6.00;;;;;;;8.83;66.24;94101.50;5093286;28;20196;-73
2021/12/04 06:40:58;;;;;;;6.57;5.63;;;;;;;8.92;66.15;94115.94;5093317;28;20182;-78
2021/12/04 06:43:26;;;;;;;6.43;5.83;;;;;;;8.80;65.79;94095.72;5093108;28;20190;-72
2021/12/04 06:45:59;;;;;;;6.20;5.60;;;;;;;8.95;65.59;94121.56;5092647;28;20189;-77
2021/12/04 06:48:35;;;;;;;7.13;5.90;;;;;;;8.95;65.69;94121.56;5092928;28;20220;-73
2021/12/04 06:51:05;;;;;;;6.27;5.60;;;;;;;9.03;65.51;94131.84;5092476;28;20190;-74
2021/12/04 06:53:38;;;;;;;7.17;6.03;;;;;;;8.91;65.57;94104.13;5093053;28;20189;-74
2021/12/04 06:56:07;;;;;;;7.87;6.00;;;;;;;9.10;65.42;94134.63;5076777;28;20202;-73
2021/12/04 06:58:35;;;;;;;10.17;5.70;;;;;;;9.15;65.37;94137.53;5070396;28;20217;-76
2021/12/04 07:01:04;;;;;;;7.13;6.43;;;;;;;9.20;65.46;94142.25;5069811;28;20190;-79
2021/12/04 07:03:31;;;;;;;6.97;6.07;;;;;;;9.26;65.15;94136.56;5069958;28;20252;-74
2021/12/04 07:05:57;;;;;;;7.00;6.30;;;;;;;9.32;65.45;94130.88;5070102;28;20202;-76
2021/12/04 07:08:24;;;;;;;8.77;7.07;;;;;;;9.32;65.15;94127.50;5069750;28;20226;-76
2021/12/04 07:10:51;;;;;;;7.83;6.53;;;;;;;9.44;65.13;94145.03;5070449;28;20190;-74
2021/12/04 07:13:18;;;;;;;7.03;6.33;;;;;;;9.48;64.73;94143.00;5069498;28;20198;-74
2021/12/04 07:15:45;;;;;;;7.23;6.47;;;;;;;9.46;64.71;94138.06;5070066;28;20217;-72
2021/12/04 07:18:14;;;;;;;7.97;6.77;;;;;;;9.43;64.76;94134.97;5069671;28;20186;-75
2021/12/04 07:20:41;;;;;;;7.47;6.43;;;;;;;9.54;64.42;94145.78;5082515;28;20194;-75
2021/12/04 07:23:08;;;;;;;6.97;6.27;;;;;;;9.54;63.94;94142.41;5081953;28;20230;-74
2021/12/04 07:25:35;;;;;;;8.50;7.17;;;;;;;9.64;64.09;94150.81;5069306;28;20195;-75
2021/12/04 07:28:01;;;;;;;7.50;6.63;;;;;;;9.45;63.94;94100.69;5069569;28;20226;-78
2021/12/04 07:30:28;;;;;;;3.67;3.37;;;;;;;10.15;100.00;94146.78;5069953;28;20266;-75
2021/12/04 07:32:55;;;;;;;6.97;6.13;;;;;;;10.69;97.23;94146.66;5069507;28;20653;-72
2021/12/04 07:35:24;;;;;;;6.73;6.03;;;;;;;10.94;89.19;94139.91;5069787;28;20189;-73
2021/12/04 07:37:52;;;;;;;6.70;6.00;;;;;;;10.89;83.07;94114.00;5069096;28;20205;-75
2021/12/04 07:40:19;;;;;;;6.97;6.13;;;;;;;11.10;78.86;94132.31;5069328;28;20205;-75
2021/12/04 07:42:46;;;;;;;7.63;3.93;;;;;;;11.46;93.55;94124.41;5069158;28;20186;-73
2021/12/04 07:45:13;;;;;;;8.40;6.53;;;;;;;11.59;87.30;94094.03;5069422;28;20186;-79
2021/12/04 07:47:40;;;;;;;6.63;5.80;;;;;;;11.77;82.08;94101.56;5068952;28;20233;-74
2021/12/04 07:50:09;;;;;;;8.50;6.50;;;;;;;11.39;77.76;94031.28;5068564;28;20188;-76
2021/12/04 07:52:39;;;;;;;7.40;6.67;;;;;;;11.79;74.96;94097.09;5068949;28;20192;-74
2021/12/04 07:55:07;;;;;;;8.53;6.67;;;;;;;11.74;73.21;94089.88;5068649;28;20717;-74
2021/12/04 07:57:33;;;;;;;8.60;6.40;;;;;;;11.72;71.53;94085.88;5069217;28;20193;-71
2021/12/04 08:00:01;;;;;;;9.40;7.00;;;;;;;11.73;70.17;94087.47;5068317;28;20202;-73
2021/12/04 08:02:28;;;;;;;8.00;6.50;;;;;;;11.74;69.20;94081.38;5068934;28;20202;-73
2021/12/04 08:04:55;;;;;;;7.57;6.77;;;;;;;11.74;68.16;94078.81;5068579;28;20236;-75
2021/12/04 08:07:21;;;;;;;7.53;6.73;;;;;;;11.73;67.00;94077.22;5068547;28;20567;-73
2021/12/04 08:09:50;;;;;;;8.00;6.70;;;;;;;11.74;65.88;94081.38;5068014;28;20205;-73
2021/12/04 08:12:16;;;;;;;8.00;6.57;;;;;;;11.69;64.98;94060.56;5068516;28;20910;-74
2021/12/04 08:14:43;;;;;;;10.33;6.87;;;;;;;11.77;64.40;94070.81;5068500;28;20202;-73
2021/12/04 08:17:10;;;;;;;8.10;7.30;;;;;;;11.83;63.94;94077.09;5077457;28;20204;-72
2021/12/04 08:19:38;;;;;;;8.20;7.10;;;;;;;11.86;63.27;94072.44;5091301;28;20677;-74
2021/12/04 08:22:05;;;;;;;7.57;6.63;;;;;;;11.86;62.72;94076.78;5090806;28;20207;-73
2021/12/04 08:24:32;;;;;;;8.47;6.50;;;;;;;11.94;62.16;94092.16;5092525;28;20230;-76
2021/12/04 08:27:01;;;;;;;7.07;6.37;;;;;;;11.39;61.85;94008.22;5090504;28;20197;-74
2021/12/04 08:29:28;;;;;;;6.70;6.10;;;;;;;11.94;61.43;94092.94;5090310;28;20216;-73
2021/12/04 08:31:55;;;;;;;7.10;6.40;;;;;;;11.94;61.26;94092.16;5090403;28;20197;-73
2021/12/04 08:34:23;;;;;;;7.10;6.40;;;;;;;11.99;60.72;94082.22;5090847;28;20619;-73
2021/12/04 08:36:52;;;;;;;7.60;6.80;;;;;;;12.02;60.54;94089.59;5090976;28;20228;-73
2021/12/04 08:39:21;;;;;;;7.60;6.60;;;;;;;12.03;60.33;94081.72;5090529;28;20193;-73
2021/12/04 08:41:48;;;;;;;7.37;6.57;;;;;;;12.08;59.89;94080.44;5088884;28;20657;-74
2021/12/04 08:44:19;;;;;;;7.10;6.40;;;;;;;12.12;59.76;94081.72;5090816;28;20193;-72
2021/12/04 08:46:47;;;;;;;6.93;6.17;;;;;;;12.16;59.61;94073.53;5090720;28;20450;-72
2021/12/04 08:49:14;;;;;;;7.80;6.30;;;;;;;12.21;59.42;94065.38;5090509;28;20221;-73
2021/12/04 08:51:42;;;;;;;8.10;6.67;;;;;;;12.27;59.25;94077.56;5090463;28;20197;-72
2021/12/04 08:54:10;;;;;;;7.53;6.63;;;;;;;12.30;58.93;94064.38;5090180;28;20573;-74
2021/12/04 08:56:37;;;;;;;8.17;6.83;;;;;;;12.34;58.64;94052.84;5090441;28;20189;-73
2021/12/04 08:59:04;;;;;;;7.10;6.33;;;;;;;12.38;58.59;94054.13;5090495;28;20213;-72
2021/12/04 09:01:36;;;;;;;6.53;5.53;;;;;;;12.42;58.57;94057.16;5090414;28;20190;-74
2021/12/04 09:04:08;;;;;;;8.30;6.77;;;;;;;12.43;58.47;94053.63;5090304;28;20189;-77
2021/12/04 09:06:37;;;;;;;8.23;7.37;;;;;;;12.47;58.07;94065.16;5088828;28;20189;-73
2021/12/04 09:09:05;;;;;;;8.87;7.53;;;;;;;12.48;58.41;94064.22;5089848;28;20221;-73
2021/12/04 09:11:35;;;;;;;10.10;7.27;;;;;;;12.49;58.05;94058.09;5090630;28;20189;-73
2021/12/04 09:14:05;;;;;;;7.13;6.43;;;;;;;12.49;57.97;94056.34;5090015;28;20681;-74
2021/12/04 09:16:34;;;;;;;7.53;6.73;;;;;;;12.52;57.96;94062.88;5090256;28;20193;-75
2021/12/04 09:19:01;;;;;;;7.40;6.70;;;;;;;12.51;57.80;94056.97;5090262;28;20246;-72
2021/12/04 09:21:28;;;;;;;7.00;6.30;;;;;;;12.58;57.85;94076.84;5089996;28;20197;-74
2021/12/04 09:24:04;;;;;;;8.23;6.93;;;;;;;12.59;57.77;94074.09;5089878;28;20233;-73
2021/12/04 09:26:40;;;;;;;8.93;7.40;;;;;;;12.57;57.58;94076.03;5090128;28;20712;-72
2021/12/04 09:29:20;;;;;;;9.30;6.17;;;;;;;12.56;57.62;94069.28;5089925;28;20722;-76
2021/12/04 09:32:19;;;;;;;8.17;7.10;;;;;;;12.54;57.58;94078.91;5088251;28;20200;-74
2021/12/04 09:35:07;;;;;;;7.23;5.87;;;;;;;12.52;57.59;94075.72;5089935;28;20197;-73
2021/12/04 10:02:20;;;;;;;8.70;7.47;;;;;;;12.20;58.05;94077.38;5093202;28;20618;-74
2021/12/04 10:13:30;;;;;;;8.90;7.70;;;;;;;12.08;58.41;94073.56;5093332;28;20196;-74
2021/12/04 10:18:54;;;;;;;10.87;7.90;;;;;;;12.04;58.23;94051.78;5050592;28;20692;-73
2021/12/04 10:24:47;;;;;;;12.27;10.00;;;;;;;12.02;58.46;94044.25;4990783;28;20240;-73
2021/12/04 10:33:09;;;;;;;14.80;10.50;;;;;;;12.02;58.46;94025.53;4989960;28;20634;-73
2021/12/04 10:35:36;;;;;;;12.90;10.57;;;;;;;11.99;58.45;94020.72;4988888;28;20181;-73
2021/12/04 10:38:06;;;;;;;11.70;9.30;;;;;;;11.98;58.58;94024.25;4991085;28;20211;-74
2021/12/04 10:40:37;;;;;;;11.57;9.43;;;;;;;11.78;58.29;93996.38;4990543;28;20197;-73
2021/12/04 10:43:06;;;;;;;10.57;8.57;;;;;;;11.97;58.59;94020.88;4991177;28;20201;-72
2021/12/04 10:45:35;;;;;;;10.63;8.77;;;;;;;11.98;58.79;94025.03;4989778;28;20208;-73
2021/12/04 10:48:05;;;;;;;11.77;8.83;;;;;;;11.96;58.64;94037.22;4989446;28;20736;-72
2021/12/04 10:50:40;;;;;;;11.50;8.50;;;;;;;11.94;58.64;94021.19;4990694;28;20247;-72
2021/12/04 10:53:18;;;;;;;12.60;9.00;;;;;;;11.93;58.87;94032.41;4990265;28;20696;-73
2021/12/04 10:55:49;;;;;;;9.20;8.20;;;;;;;11.72;58.81;93999.59;5015598;28;20187;-73
2021/12/04 10:58:39;;;;;;;10.83;8.60;;;;;;;11.91;58.89;94025.84;5067143;28;20695;-73
2021/12/04 11:04:00;;;;;;;9.03;7.50;;;;;;;11.90;59.09;94035.31;5090409;28;20190;-72
2021/12/04 11:06:43;;;;;;;10.40;8.77;;;;;;;11.86;59.02;94028.09;5092537;28;20185;-72
2021/12/04 11:42:39;;;;;;;8.17;7.30;;;;;;;11.97;59.42;94026.00;5048027;28;20201;-73
2021/12/04 11:45:14;;;;;;;8.40;7.37;;;;;;;11.96;59.46;94006.47;5049190;28;20191;-73
2021/12/04 11:47:44;;;;;;;10.10;7.50;;;;;;;11.95;59.51;94009.97;5049010;28;20264;-73
2021/12/04 11:50:22;;;;;;;10.67;8.37;;;;;;;11.93;59.30;94022.16;5049218;28;20229;-73
2021/12/04 11:52:52;;;;;;;8.57;7.67;;;;;;;11.93;59.26;94013.69;5086007;28;20631;-73
2021/12/04 11:55:24;;;;;;;10.40;7.90;;;;;;;11.93;59.52;94016.25;5091409;28;20197;-73
2021/12/04 11:57:53;;;;;;;10.10;8.10;;;;;;;11.94;59.52;94015.28;5091432;28;20224;-73
2021/12/04 12:00:25;;;;;;;9.80;7.63;;;;;;;11.91;59.48;94000.22;5091512;28;20205;-73
2021/12/04 12:03:04;;;;;;;10.13;7.87;;;;;;;11.46;59.40;93928.06;5091214;28;20182;-74
2021/12/04 12:05:32;;;;;;;10.40;8.00;;;;;;;11.70;59.33;93962.28;5090955;28;20189;-73
2021/12/04 12:07:59;;;;;;;7.93;7.10;;;;;;;11.95;59.39;94006.63;5091385;28;20193;-72
2021/12/04 12:10:27;;;;;;;9.37;7.37;;;;;;;11.95;59.31;94002.31;5091158;28;20221;-73
2021/12/04 12:13:05;;;;;;;9.67;7.37;;;;;;;11.94;59.54;94000.72;5091088;28;20250;-73
2021/12/04 12:15:35;;;;;;;10.10;7.10;;;;;;;11.91;59.54;94002.78;5091369;28;20182;-73
2021/12/04 12:18:11;;;;;;;8.03;7.07;;;;;;;11.92;59.48;94012.91;5090810;28;20607;-72
2021/12/04 12:20:42;;;;;;;10.03;7.97;;;;;;;11.90;59.72;94014.81;5091178;28;20227;-73
2021/12/04 12:23:12;;;;;;;7.97;6.90;;;;;;;11.90;59.64;94006.31;5091286;28;20238;-72
2021/12/04 12:31:56;;;;;;;8.90;6.77;;;;;;;11.85;59.87;94029.06;5090707;28;20177;-72
2021/12/04 12:37:21;;;;;;;10.00;6.83;;;;;;;11.78;60.10;94018.63;5090732;28;20547;-74
2021/12/04 12:39:53;;;;;;;9.50;7.53;;;;;;;11.76;60.15;94021.34;5090691;28;20246;-74
2021/12/04 12:42:30;;;;;;;8.07;6.60;;;;;;;11.75;60.16;94016.41;5090631;28;20641;-72
2021/12/04 12:45:17;;;;;;;9.50;6.80;;;;;;;11.73;60.35;94018.31;5090580;28;20189;-72
2021/12/04 12:47:49;;;;;;;9.30;7.27;;;;;;;11.71;60.15;94010.81;5090630;28;20189;-73
2021/12/04 12:50:26;;;;;;;8.33;6.60;;;;;;;11.70;60.40;94010.94;5090460;28;20216;-74
2021/12/04 12:53:00;;;;;;;11.63;7.67;;;;;;;11.69;60.56;94006.78;5090602;28;20177;-73
2021/12/04 12:55:31;;;;;;;10.60;8.23;;;;;;;11.68;60.47;94015.44;5090443;28;20189;-73
2021/12/04 12:58:12;;;;;;;10.63;8.67;;;;;;;11.67;60.83;94022.31;5090683;28;20182;-74
2021/12/04 13:11:54;;;;;;;12.30;9.23;;;;;;;11.39;60.54;94008.22;5090384;28;20192;-73
2021/12/04 13:14:24;;;;;;;13.77;9.93;;;;;;;11.56;60.92;94040.56;5089577;28;20554;-73
2021/12/04 13:17:01;;;;;;;14.27;9.70;;;;;;;11.55;60.78;94039.75;5090326;28;20213;-75
2021/12/04 13:19:29;;;;;;;14.53;10.57;;;;;;;11.54;61.04;94037.38;5089968;28;20280;-73
2021/12/04 13:22:02;;;;;;;10.03;9.00;;;;;;;11.42;60.97;94018.16;5090292;28;20190;-75
2021/12/04 13:24:32;;;;;;;11.50;9.63;;;;;;;11.43;60.90;94019.75;5089782;28;20225;-74
2021/12/04 13:29:37;;;;;;;13.87;9.80;;;;;;;11.47;61.13;94029.50;5089546;28;20228;-73
2021/12/04 13:32:05;;;;;;;14.27;10.20;;;;;;;11.48;61.27;94033.66;5090265;28;20190;-72
2021/12/04 13:34:33;;;;;;;15.13;10.33;;;;;;;11.47;61.03;94031.28;5089690;28;20231;-73
2021/12/04 13:37:01;;;;;;;12.67;10.37;;;;;;;11.45;61.03;94030.66;5090155;28;20247;-74
2021/12/04 13:39:28;;;;;;;15.23;10.77;;;;;;;11.43;61.20;94027.44;5090080;28;20182;-74
2021/12/04 13:41:56;;;;;;;14.47;10.43;;;;;;;11.29;61.21;94016.06;5090223;28;20186;-73
2021/12/04 13:44:26;;;;;;;12.37;10.43;;;;;;;11.40;61.22;94033.69;5089516;28;20192;-73
2021/12/04 13:46:55;;;;;;;12.23;10.73;;;;;;;11.34;61.42;94023.28;5089893;28;20196;-73
2021/12/04 13:49:32;;;;;;;11.30;10.00;;;;;;;11.36;61.22;94027.28;5089478;28;20221;-73
2021/12/04 13:52:02;;;;;;;12.63;9.97;;;;;;;11.35;61.40;94023.09;5090075;28;20852;-73
2021/12/04 13:54:30;;;;;;;10.97;9.53;;;;;;;11.34;61.33;94025.81;5089338;28;20189;-73
2021/12/04 13:56:57;;;;;;;14.77;10.97;;;;;;;11.27;61.57;94015.44;5088628;28;20190;-74
2021/12/04 13:59:27;;;;;;;13.83;10.43;;;;;;;11.31;61.52;94024.38;5088623;28;20185;-73
2021/12/04 14:01:54;;;;;;;14.20;11.27;;;;;;;11.30;61.61;94025.34;5088467;28;20190;-74
2021/12/04 14:04:23;;;;;;;13.03;10.63;;;;;;;11.29;61.62;94021.97;5088756;28;20197;-75
2021/12/04 14:06:55;;;;;;;12.67;10.60;;;;;;;11.29;61.94;94009.19;5088573;28;20186;-76
2021/12/04 14:09:23;;;;;;;12.33;10.00;;;;;;;11.30;61.75;94017.66;5088440;28;20217;-75
2021/12/04 14:11:53;;;;;;;14.43;10.60;;;;;;;11.19;61.68;93992.41;5089151;28;20583;-74
2021/12/04 14:14:22;;;;;;;11.97;10.47;;;;;;;11.29;61.89;94001.50;5089537;28;20181;-74
2021/12/04 14:16:52;;;;;;;14.93;11.03;;;;;;;11.27;61.90;93998.31;5089270;28;20571;-75
2021/12/04 14:19:22;;;;;;;11.83;10.63;;;;;;;11.28;61.96;93994.78;5089491;28;20260;-74
2021/12/04 14:21:58;;;;;;;13.27;10.50;;;;;;;11.25;61.88;93991.75;5089470;28;20247;-74
2021/12/04 14:24:27;;;;;;;15.77;10.90;;;;;;;11.28;61.94;93994.00;5086550;28;20217;-75